createdAt,value
2019-05-02T00:01:56.402Z,19.43
2019-05-02T00:04:26.636Z,20.90
2019-05-02T00:07:05.728Z,18.43
2019-05-02T00:09:35.780Z,18.87
2019-05-02T00:12:07.106Z,19.53
2019-05-02T00:14:36.883Z,20.63
2019-05-02T00:17:06.002Z,15.40
2019-05-02T00:19:34.496Z,21.07
2019-05-02T00:22:03.329Z,17.90
2019-05-02T00:24:33.945Z,19.60
2019-05-02T00:27:03.184Z,18.53
2019-05-02T00:29:31.817Z,18.03
2019-05-02T00:32:00.402Z,20.10
2019-05-02T00:34:28.828Z,20.87
2019-05-02T00:36:57.278Z,18.63
2019-05-02T00:39:25.699Z,20.13
2019-05-02T00:41:54.319Z,21.30
2019-05-02T00:44:23.095Z,21.13
2019-05-02T00:46:53.198Z,22.60
2019-05-02T00:49:21.675Z,23.53
2019-05-02T00:51:50.226Z,23.17
2019-05-02T00:54:19.120Z,21.57
2019-05-02T00:56:48.777Z,22.73
2019-05-02T00:59:17.224Z,24.00
2019-05-02T01:01:59.994Z,23.53
2019-05-02T01:04:34.479Z,22.47
2019-05-02T01:07:04.833Z,23.10
2019-05-02T01:09:33.419Z,24.20
2019-05-02T01:12:03.044Z,23.00
2019-05-02T01:14:33.208Z,23.73
2019-05-02T01:17:01.806Z,24.10
2019-05-02T01:19:30.330Z,23.63
2019-05-02T01:21:58.824Z,26.30
2019-05-02T01:24:27.438Z,25.37
2019-05-02T01:27:12.309Z,25.00
2019-05-02T01:29:45.146Z,22.53
2019-05-02T01:32:25.176Z,21.87
2019-05-02T01:34:56.388Z,26.80
2019-05-02T01:37:38.782Z,24.73
2019-05-02T01:40:07.275Z,24.47
2019-05-02T01:42:40.025Z,23.67
2019-05-02T01:45:06.818Z,23.53
2019-05-02T01:47:36.209Z,24.20
2019-05-02T01:50:05.453Z,24.97
2019-05-02T01:52:33.891Z,23.80
2019-05-02T01:55:02.320Z,23.47
2019-05-02T01:57:30.747Z,24.80
2019-05-02T01:59:59.176Z,25.53
2019-05-02T02:02:28.065Z,24.57
2019-05-02T02:04:58.073Z,25.93
2019-05-02T02:07:26.568Z,25.37
2019-05-02T02:09:54.986Z,26.10
2019-05-02T02:12:23.480Z,25.62
2019-05-02T02:14:53.656Z,26.43
2019-05-02T02:17:22.071Z,25.25
2019-05-02T02:19:52.128Z,25.03
2019-05-02T02:22:22.666Z,24.83
2019-05-02T02:24:55.932Z,24.40
2019-05-02T02:27:25.898Z,25.97
2019-05-02T02:29:54.312Z,24.98
2019-05-02T02:32:27.132Z,24.15
2019-05-02T02:34:52.887Z,25.47
2019-05-02T02:37:21.338Z,26.40
2019-05-02T02:39:54.268Z,25.33
2019-05-02T02:42:25.091Z,25.40
2019-05-02T02:44:51.717Z,26.23
2019-05-02T02:47:21.261Z,27.37
2019-05-02T02:49:55.965Z,24.63
2019-05-02T02:52:20.155Z,22.90
2019-05-02T02:54:48.588Z,26.90
2019-05-02T02:57:25.940Z,26.93
2019-05-02T02:59:47.219Z,25.77
2019-05-02T03:02:15.708Z,25.92
2019-05-02T03:04:46.032Z,26.30
2019-05-02T03:07:24.184Z,24.13
2019-05-02T03:09:44.586Z,26.27
2019-05-02T03:12:20.700Z,25.30
2019-05-02T03:14:50.846Z,26.83
2019-05-02T03:17:25.777Z,27.23
2019-05-02T03:19:54.542Z,27.37
2019-05-02T03:22:19.780Z,30.68
2019-05-02T03:24:50.916Z,26.30
2019-05-02T03:27:19.413Z,29.00
2019-05-02T03:29:47.858Z,28.80
2019-05-02T03:32:32.226Z,29.47
2019-05-02T03:34:52.481Z,27.07
2019-05-02T03:37:17.871Z,29.70
2019-05-02T03:39:49.813Z,29.53
2019-05-02T03:42:16.583Z,30.80
2019-05-02T03:44:54.906Z,29.23
2019-05-02T03:47:15.314Z,27.93
2019-05-02T03:49:48.535Z,28.30
2019-05-02T03:52:14.348Z,30.13
2019-05-02T03:54:50.547Z,28.43
2019-05-02T03:57:12.990Z,28.63
2019-05-02T03:59:41.853Z,28.70
2019-05-02T04:02:13.882Z,28.98
2019-05-02T04:04:40.952Z,29.70
2019-05-02T04:07:09.865Z,28.63
2019-05-02T04:09:40.039Z,28.57
2019-05-02T04:12:18.961Z,28.37
2019-05-02T04:14:39.617Z,29.23
2019-05-02T04:17:10.358Z,30.40
2019-05-02T04:19:39.351Z,29.23
2019-05-02T04:22:11.771Z,31.13
2019-05-02T04:24:41.228Z,29.67
2019-05-02T04:27:09.790Z,30.23
2019-05-02T04:29:38.567Z,29.70
2019-05-02T04:32:11.629Z,30.63
2019-05-02T04:34:37.135Z,31.43
2019-05-02T04:37:05.586Z,31.37
2019-05-02T04:39:34.080Z,31.77
2019-05-02T04:42:05.294Z,31.30
2019-05-02T04:44:40.701Z,32.20
2019-05-02T04:47:10.956Z,32.13
2019-05-02T04:49:35.673Z,34.08
2019-05-02T04:52:10.336Z,32.77
2019-05-02T04:54:34.821Z,32.03
2019-05-02T04:57:03.279Z,32.03
2019-05-02T04:59:33.352Z,32.97
2019-05-02T05:02:01.969Z,34.67
2019-05-02T05:04:33.207Z,35.50
2019-05-02T05:07:01.226Z,35.60
2019-05-02T05:09:29.877Z,33.90
2019-05-02T05:12:01.321Z,34.40
2019-05-02T05:14:32.872Z,36.83
2019-05-02T05:16:58.617Z,37.87
2019-05-02T05:19:30.990Z,39.97
2019-05-02T05:22:04.442Z,39.25
2019-05-02T05:24:42.107Z,40.37
2019-05-02T05:27:08.310Z,42.30
2019-05-02T05:29:37.473Z,39.63
2019-05-02T05:32:09.847Z,40.07
2019-05-02T05:34:37.992Z,40.47
2019-05-02T05:37:09.341Z,38.37
2019-05-02T05:39:38.163Z,40.70
2019-05-02T05:42:08.385Z,39.30
2019-05-02T05:44:37.784Z,40.83
2019-05-02T05:47:07.456Z,38.13
2019-05-02T05:49:37.559Z,39.90
2019-05-02T05:52:08.102Z,35.40
2019-05-02T05:54:38.408Z,39.23
2019-05-02T05:57:07.577Z,39.73
2019-05-02T05:59:38.009Z,37.67
2019-05-02T06:02:12.715Z,37.83
2019-05-02T06:04:38.743Z,38.33
2019-05-02T06:07:07.315Z,38.60
2019-05-02T06:09:38.804Z,37.93
2019-05-02T06:12:07.259Z,36.93
2019-05-02T06:14:35.679Z,38.70
2019-05-02T06:17:04.162Z,37.87
2019-05-02T06:19:33.046Z,39.53
2019-05-02T06:22:01.457Z,39.70
2019-05-02T06:24:29.880Z,42.00
2019-05-02T06:26:58.302Z,38.87
2019-05-02T06:29:26.733Z,38.70
2019-05-02T06:31:56.763Z,39.63
2019-05-02T06:34:25.198Z,38.87
2019-05-02T06:36:55.156Z,38.93
2019-05-02T06:39:27.157Z,37.53
2019-05-02T06:41:57.385Z,39.80
2019-05-02T06:44:25.393Z,35.90
2019-05-02T06:46:54.009Z,37.37
2019-05-02T06:49:24.144Z,36.43
2019-05-02T06:51:56.250Z,35.97
2019-05-02T06:54:23.997Z,36.43
2019-05-02T06:56:52.680Z,36.40
2019-05-02T06:59:21.434Z,36.08
2019-05-02T07:01:52.299Z,38.47
2019-05-02T07:04:22.951Z,36.57
2019-05-02T07:06:58.471Z,37.40
2019-05-02T07:09:20.506Z,34.37
2019-05-02T07:11:56.972Z,34.18
2019-05-02T07:14:23.387Z,34.33
2019-05-02T07:16:54.563Z,31.97
2019-05-02T07:19:27.231Z,32.40
2019-05-02T07:21:58.578Z,30.70
2019-05-02T07:24:25.157Z,31.57
2019-05-02T07:26:56.923Z,30.17
2019-05-02T07:29:24.186Z,30.43
2019-05-02T07:31:53.629Z,31.47
2019-05-02T07:34:22.270Z,31.07
2019-05-02T07:36:50.712Z,32.40
2019-05-02T07:39:19.268Z,30.50
2019-05-02T07:41:48.867Z,32.70
2019-05-02T07:44:17.298Z,32.23
2019-05-02T07:46:51.889Z,31.83
2019-05-02T07:49:16.010Z,31.90
2019-05-02T07:51:44.438Z,32.75
2019-05-02T07:54:12.866Z,31.23
2019-05-02T07:56:41.300Z,31.77
2019-05-02T07:59:09.773Z,33.43
2019-05-02T08:01:39.248Z,32.73
2019-05-02T08:04:11.077Z,32.37
2019-05-02T08:06:40.192Z,32.67
2019-05-02T08:09:09.422Z,33.03
2019-05-02T08:11:38.535Z,31.17
2019-05-02T08:14:07.159Z,30.45
2019-05-02T08:16:35.683Z,29.37
2019-05-02T08:19:05.465Z,31.43
2019-05-02T08:21:34.627Z,30.73
2019-05-02T08:24:03.708Z,30.70
2019-05-02T08:26:43.078Z,30.33
2019-05-02T08:29:11.681Z,27.73
2019-05-02T08:31:40.097Z,29.80
2019-05-02T08:34:14.697Z,29.57
2019-05-02T08:36:38.686Z,29.10
2019-05-02T08:39:07.346Z,29.97
2019-05-02T08:41:35.798Z,29.27
2019-05-02T08:44:04.427Z,28.27
2019-05-02T08:46:32.976Z,27.00
2019-05-02T08:49:01.523Z,26.60
2019-05-02T08:51:29.952Z,25.77
2019-05-02T08:53:58.711Z,27.93
2019-05-02T08:56:27.293Z,26.50
2019-05-02T08:58:55.714Z,26.10
2019-05-02T09:01:34.626Z,26.83
2019-05-02T09:03:56.485Z,26.63
2019-05-02T09:06:24.525Z,27.67
2019-05-02T09:08:52.938Z,28.07
2019-05-02T09:11:21.383Z,25.70
2019-05-02T09:13:49.818Z,26.67
2019-05-02T09:16:23.720Z,24.57
2019-05-02T09:18:51.839Z,25.13
2019-05-02T09:21:18.634Z,27.23
2019-05-02T09:23:47.130Z,25.87
2019-05-02T09:26:15.651Z,26.07
2019-05-02T09:28:44.087Z,25.33
2019-05-02T09:31:15.021Z,24.27
2019-05-02T09:33:46.798Z,27.03
2019-05-02T09:36:13.606Z,27.00
2019-05-02T09:38:42.530Z,27.27
2019-05-02T09:41:18.811Z,27.50
2019-05-02T09:43:42.629Z,27.43
2019-05-02T09:46:12.770Z,28.77
2019-05-02T09:48:42.731Z,26.27
2019-05-02T09:51:17.009Z,24.43
2019-05-02T09:53:43.152Z,28.83
2019-05-02T09:56:12.672Z,29.87
2019-05-02T09:58:42.036Z,28.87
2019-05-02T10:01:18.161Z,27.63
2019-05-02T10:03:46.714Z,29.30
2019-05-02T10:06:18.145Z,27.50
2019-05-02T10:08:46.726Z,26.80
2019-05-02T10:11:17.129Z,28.30
2019-05-02T10:13:45.474Z,26.37
2019-05-02T10:16:18.092Z,27.75
2019-05-02T10:18:44.120Z,28.30
2019-05-02T10:21:16.934Z,26.50
2019-05-02T10:23:42.914Z,28.87
2019-05-02T10:26:14.657Z,28.17
2019-05-02T10:28:49.548Z,26.50
2019-05-02T10:31:12.740Z,25.57
2019-05-02T10:33:42.031Z,28.03
2019-05-02T10:36:13.700Z,27.40
2019-05-02T10:38:42.608Z,26.50
2019-05-02T10:41:12.035Z,28.02
2019-05-02T10:43:42.317Z,30.90
2019-05-02T10:46:15.314Z,29.00
2019-05-02T10:48:45.475Z,31.53
2019-05-02T10:51:31.697Z,33.73
2019-05-02T10:54:02.276Z,32.77
2019-05-02T10:56:32.436Z,32.23
2019-05-02T10:59:02.258Z,33.47
2019-05-02T11:01:32.464Z,34.17
2019-05-02T11:04:04.066Z,35.53
2019-05-02T11:06:32.522Z,36.63
2019-05-02T11:09:06.301Z,36.67
2019-05-02T11:11:33.332Z,39.03
2019-05-02T11:14:09.026Z,39.57
2019-05-02T11:16:57.402Z,38.63
2019-05-02T11:19:27.466Z,39.33
2019-05-02T11:21:58.971Z,38.90
2019-05-02T11:24:28.260Z,36.20
2019-05-02T11:26:56.684Z,38.40
2019-05-02T11:29:25.126Z,37.97
2019-05-02T11:31:55.287Z,38.67
2019-05-02T11:34:23.723Z,38.07
2019-05-02T11:36:52.715Z,39.67
2019-05-02T11:39:28.686Z,38.23
2019-05-02T11:41:52.701Z,36.63
2019-05-02T11:44:22.581Z,37.70
2019-05-02T11:46:54.330Z,36.73
2019-05-02T11:49:22.933Z,38.50
2019-05-02T11:51:52.711Z,36.43
2019-05-02T11:54:22.705Z,35.37
2019-05-02T11:56:53.344Z,34.23
2019-05-02T11:59:27.608Z,34.07
2019-05-02T12:01:59.466Z,32.87
2019-05-02T12:04:23.521Z,32.13
2019-05-02T12:07:01.130Z,34.17
2019-05-02T12:09:22.375Z,35.30
2019-05-02T12:11:54.992Z,32.50
2019-05-02T12:14:22.877Z,34.08
2019-05-02T12:16:52.775Z,33.83
2019-05-02T12:19:22.876Z,33.37
2019-05-02T12:21:55.609Z,34.17
2019-05-02T12:24:24.075Z,33.50
2019-05-02T12:26:52.886Z,36.90
2019-05-02T12:29:21.880Z,36.75
2019-05-02T12:31:52.676Z,39.63
2019-05-02T12:34:21.714Z,37.93
2019-05-02T12:36:51.790Z,40.57
2019-05-02T12:39:22.158Z,38.73
2019-05-02T12:41:53.312Z,38.70
2019-05-02T12:44:22.311Z,38.50
2019-05-02T12:46:51.784Z,37.20
2019-05-02T12:49:25.347Z,35.57
2019-05-02T12:51:52.387Z,33.73
2019-05-02T12:54:21.990Z,33.27
2019-05-02T12:56:52.617Z,32.97
2019-05-02T12:59:22.496Z,33.17
2019-05-02T13:01:51.823Z,34.57
2019-05-02T13:04:22.806Z,31.57
2019-05-02T13:06:52.852Z,30.97
2019-05-02T13:09:23.180Z,29.77
2019-05-02T13:11:53.078Z,28.57
2019-05-02T13:14:23.415Z,29.05
2019-05-02T13:16:53.394Z,26.60
2019-05-02T13:19:26.496Z,26.17
2019-05-02T13:21:59.360Z,22.40
2019-05-02T13:24:42.218Z,20.33
2019-05-02T13:27:12.651Z,19.35
2019-05-02T13:30:00.514Z,19.77
2019-05-02T13:32:32.094Z,18.60
2019-05-02T13:35:18.894Z,17.07
2019-05-02T13:37:48.624Z,17.57
2019-05-02T13:40:27.744Z,17.03
2019-05-02T13:42:58.433Z,18.37
2019-05-02T13:45:28.591Z,17.43
2019-05-02T13:47:57.146Z,17.73
2019-05-02T13:50:25.570Z,17.35
2019-05-02T13:52:57.854Z,14.27
2019-05-02T13:55:28.527Z,14.37
2019-05-02T13:57:57.026Z,13.20
2019-05-02T14:00:29.482Z,13.63
2019-05-02T14:02:57.923Z,12.70
2019-05-02T14:05:26.375Z,11.13
2019-05-02T14:08:12.977Z,10.93
2019-05-02T14:10:43.281Z,10.23
2019-05-02T14:13:12.475Z,9.88
2019-05-02T14:15:42.133Z,9.77
2019-05-02T14:18:12.406Z,9.58
2019-05-02T14:20:42.780Z,9.03
2019-05-02T14:23:12.142Z,8.85
2019-05-02T14:25:42.614Z,9.90
2019-05-02T14:28:12.945Z,9.10
2019-05-02T14:30:45.989Z,9.57
2019-05-02T14:33:13.082Z,9.23
2019-05-02T14:35:43.142Z,8.77
2019-05-02T14:38:13.455Z,10.28
2019-05-02T14:41:06.179Z,9.87
2019-05-02T14:43:53.078Z,10.13
2019-05-02T14:46:22.371Z,10.85
2019-05-02T14:48:52.233Z,10.03
2019-05-02T14:51:25.905Z,11.27
2019-05-02T14:53:52.597Z,11.13
2019-05-02T14:56:45.902Z,11.63
2019-05-02T14:59:17.898Z,14.10
2019-05-02T15:01:42.119Z,14.23
2019-05-02T15:04:12.814Z,15.23
2019-05-02T15:06:45.370Z,16.00
2019-05-02T15:09:12.058Z,16.70
2019-05-02T15:11:59.140Z,18.00
2019-05-02T15:14:29.515Z,17.30
2019-05-02T15:16:58.817Z,17.60
2019-05-02T15:19:27.400Z,15.67
2019-05-02T15:21:56.206Z,17.80
2019-05-02T15:24:27.772Z,18.00
2019-05-02T15:26:55.199Z,16.90
2019-05-02T15:29:27.121Z,16.40
2019-05-02T15:32:07.655Z,16.37
2019-05-02T15:34:55.745Z,15.93
2019-05-02T15:37:25.867Z,17.77
2019-05-02T15:42:25.795Z,16.03
2019-05-02T15:44:57.105Z,17.83
2019-05-02T15:47:24.779Z,15.47
2019-05-02T15:49:53.196Z,17.43
2019-05-02T15:52:33.725Z,16.50
2019-05-02T15:55:04.142Z,17.87
2019-05-02T15:57:38.014Z,17.10
2019-05-02T16:00:04.119Z,17.97
2019-05-02T16:02:32.992Z,18.93
2019-05-02T16:05:02.321Z,19.60
2019-05-02T16:07:32.595Z,20.00
2019-05-02T16:10:03.351Z,20.33
2019-05-02T16:12:32.147Z,18.17
2019-05-02T16:15:02.431Z,19.63
2019-05-02T16:17:33.435Z,18.67
2019-05-02T16:20:10.880Z,17.70
2019-05-02T16:22:46.357Z,17.90
2019-05-02T16:25:09.764Z,19.00
2019-05-02T16:27:48.267Z,17.17
2019-05-02T16:30:22.151Z,17.63
2019-05-02T16:32:52.352Z,16.50
2019-05-02T16:35:22.486Z,15.45
2019-05-02T16:37:54.425Z,13.67
2019-05-02T16:40:30.007Z,14.03
2019-05-02T16:42:53.042Z,11.70
2019-05-02T16:45:22.195Z,10.83
2019-05-02T16:47:58.588Z,10.03
2019-05-02T16:50:22.717Z,7.60
2019-05-02T16:52:53.080Z,6.70
2019-05-02T16:55:26.322Z,6.50
2019-05-02T16:57:56.738Z,6.43
2019-05-02T17:00:24.790Z,6.33
2019-05-02T17:02:53.209Z,5.57
2019-05-02T17:05:22.143Z,4.62
2019-05-02T17:07:52.862Z,4.90
2019-05-02T17:10:29.288Z,4.30
2019-05-02T17:13:00.283Z,4.23
2019-05-02T17:15:36.366Z,4.07
2019-05-02T17:18:12.959Z,3.95
2019-05-02T17:20:36.695Z,4.30
2019-05-02T17:23:07.553Z,4.37
2019-05-02T17:25:35.798Z,5.10
2019-05-02T17:28:10.392Z,4.80
2019-05-02T17:30:39.009Z,4.30
2019-05-02T17:33:11.461Z,4.27
2019-05-02T17:35:43.378Z,4.23
2019-05-02T17:38:07.363Z,3.70
2019-05-02T17:40:35.786Z,3.83
2019-05-02T17:43:06.979Z,3.33
2019-05-02T17:45:38.507Z,3.13
2019-05-02T17:48:10.311Z,3.10
2019-05-02T17:50:38.215Z,2.90
2019-05-02T17:53:07.885Z,2.87
2019-05-02T17:55:40.270Z,3.27
2019-05-02T17:58:12.252Z,3.57
2019-05-02T18:00:38.319Z,3.13
2019-05-02T18:03:07.007Z,3.17
2019-05-02T18:05:36.297Z,3.17
2019-05-02T18:08:10.424Z,3.33
2019-05-02T18:10:38.965Z,3.40
2019-05-02T18:13:07.416Z,3.70
2019-05-02T18:15:36.298Z,3.57
2019-05-02T18:18:06.906Z,2.95
2019-05-02T18:20:37.219Z,3.37
2019-05-02T18:23:06.031Z,3.40
2019-05-02T18:25:34.748Z,3.70
2019-05-02T18:28:03.174Z,3.27
2019-05-02T18:30:31.666Z,2.43
2019-05-02T18:33:03.550Z,2.63
2019-05-02T18:35:30.255Z,3.20
2019-05-02T18:37:59.254Z,2.93
2019-05-02T18:40:29.691Z,3.50
2019-05-02T18:43:02.200Z,2.93
2019-05-02T18:45:28.767Z,3.10
2019-05-02T18:48:02.484Z,3.20
2019-05-02T18:50:31.761Z,3.27
2019-05-02T18:53:00.281Z,3.03
2019-05-02T18:55:28.988Z,3.17
2019-05-02T18:58:02.503Z,3.20
2019-05-02T19:00:35.178Z,3.10
2019-05-02T19:02:57.927Z,3.37
2019-05-02T19:05:26.685Z,3.13
2019-05-02T19:07:56.489Z,3.23
2019-05-02T19:10:25.220Z,3.40
2019-05-02T19:12:56.014Z,2.92
2019-05-02T19:15:23.941Z,3.08
2019-05-02T19:17:52.934Z,3.07
2019-05-02T19:20:24.671Z,3.47
2019-05-02T19:22:56.775Z,3.27
2019-05-02T19:25:23.234Z,3.12
2019-05-02T19:27:57.616Z,3.00
2019-05-02T19:30:27.246Z,3.13
2019-05-02T19:32:57.828Z,3.47
2019-05-02T19:35:26.193Z,3.37
2019-05-02T19:37:55.099Z,3.40
2019-05-02T19:40:28.204Z,3.10
2019-05-02T19:42:57.358Z,3.47
2019-05-02T19:45:26.847Z,4.03
2019-05-02T19:47:57.704Z,3.63
2019-05-02T19:50:38.520Z,3.50
2019-05-02T19:53:04.304Z,3.10
2019-05-02T19:55:32.149Z,3.50
2019-05-02T19:58:02.416Z,3.47
2019-05-02T20:00:31.844Z,3.57
2019-05-02T20:03:01.799Z,3.57
2019-05-02T20:05:32.179Z,3.43
2019-05-02T20:08:02.399Z,3.43
2019-05-02T20:10:32.192Z,4.10
2019-05-02T20:13:03.192Z,3.90
2019-05-02T20:15:33.502Z,3.50
2019-05-02T20:18:04.672Z,3.80
2019-05-02T20:21:03.835Z,3.70
2019-05-02T20:23:35.549Z,4.03
2019-05-02T20:26:02.477Z,4.00
2019-05-02T20:28:31.748Z,4.30
2019-05-02T20:31:01.798Z,4.07
2019-05-02T20:33:32.437Z,4.40
2019-05-02T20:36:01.841Z,3.63
2019-05-02T20:38:32.422Z,3.73
2019-05-02T20:41:02.775Z,4.10
2019-05-02T20:43:32.254Z,4.20
2019-05-02T20:46:02.575Z,3.67
2019-05-02T20:48:33.044Z,4.17
2019-05-02T20:51:02.760Z,3.83
2019-05-02T20:53:34.083Z,3.90
2019-05-02T20:56:02.005Z,3.90
2019-05-02T20:58:32.465Z,4.20
2019-05-02T21:01:07.669Z,3.93
2019-05-02T21:03:32.003Z,4.00
2019-05-02T21:06:04.851Z,4.30
2019-05-02T21:08:34.785Z,4.03
2019-05-02T21:11:06.221Z,3.93
2019-05-02T21:13:35.000Z,3.70
2019-05-02T21:16:03.627Z,3.70
2019-05-02T21:18:32.801Z,3.80
2019-05-02T21:21:01.427Z,3.70
2019-05-02T21:23:41.989Z,3.50
2019-05-02T21:26:01.901Z,4.03
2019-05-02T21:28:32.195Z,4.80
2019-05-02T21:31:02.799Z,3.70
2019-05-02T21:33:39.695Z,4.37
2019-05-02T21:36:08.582Z,3.60
2019-05-02T21:38:37.469Z,4.10
2019-05-02T21:41:11.113Z,3.30
2019-05-02T21:43:39.631Z,3.80
2019-05-02T21:46:08.244Z,3.93
2019-05-02T21:48:36.801Z,3.80
2019-05-02T21:51:09.817Z,3.67
2019-05-02T21:53:41.580Z,3.60
2019-05-02T21:56:17.380Z,3.50
2019-05-02T21:59:03.024Z,3.50
2019-05-02T22:01:32.998Z,3.97
2019-05-02T22:04:02.266Z,4.47
2019-05-02T22:06:32.255Z,3.00
2019-05-02T22:09:02.905Z,3.67
2019-05-02T22:11:32.027Z,3.20
2019-05-02T22:14:02.398Z,4.03
2019-05-02T22:16:32.682Z,3.80
2019-05-02T22:19:02.867Z,3.57
2019-05-02T22:21:34.673Z,4.30
2019-05-02T22:24:08.988Z,4.60
2019-05-02T22:26:32.783Z,5.67
2019-05-02T22:29:02.067Z,5.87
2019-05-02T22:31:32.371Z,5.43
2019-05-02T22:34:02.143Z,7.03
2019-05-02T22:36:32.660Z,7.90
2019-05-02T22:39:19.820Z,7.57
2019-05-02T22:41:48.296Z,7.50
2019-05-02T22:44:16.840Z,6.93
2019-05-02T22:46:46.128Z,7.37
2019-05-02T22:49:15.114Z,7.57
2019-05-02T22:51:44.242Z,6.67
2019-05-02T22:54:24.245Z,6.90
2019-05-02T22:56:43.358Z,7.20
2019-05-02T22:59:11.909Z,6.60
2019-05-02T23:01:42.162Z,6.63
2019-05-02T23:04:12.725Z,6.42
2019-05-02T23:06:43.838Z,6.27
2019-05-02T23:09:12.644Z,6.00
2019-05-02T23:11:42.628Z,6.40
2019-05-02T23:14:11.591Z,5.57
2019-05-02T23:16:42.766Z,5.67
2019-05-02T23:19:12.275Z,5.43
2019-05-02T23:21:42.189Z,5.70
2019-05-02T23:24:14.642Z,6.17
2019-05-02T23:26:56.753Z,5.60
2019-05-02T23:29:26.953Z,5.60
2019-05-02T23:31:55.500Z,4.97
2019-05-02T23:34:23.988Z,5.30
2019-05-02T23:36:52.552Z,5.17
2019-05-02T23:39:21.360Z,5.42
2019-05-02T23:41:49.904Z,5.60
2019-05-02T23:44:18.535Z,5.20
2019-05-02T23:46:47.004Z,4.97
2019-05-02T23:49:15.555Z,4.92
2019-05-02T23:51:44.123Z,5.20
2019-05-02T23:54:13.061Z,4.85
2019-05-02T23:56:43.069Z,4.80
2019-05-02T23:59:12.193Z,4.60
